Main page
METAR-TAF:

METAR-TAF

Airports :

Casement Aerodrome

Dublin, Ireland

latitude: 53-18-06N, longitude: 6-27-04W, elevation: 97 m

Current weather observation

The report was made 51 minutes ago, at 22:00 UTC
Wind 9 kt from the East
Temperature 6°C
Humidity 93%
Pressure 995 hPa
Visibility: 8000 m
Broken clouds at a height of 800 ft
Overcast at a height of 1900 ft
light rain

METAR: EIME 212200Z 08009KT 8000 -RA BKN008 OVC019 06/05 Q0995

Time: 22:51 (22:51 UTC)

Forecast

The report was made 2 hours and 51 minutes ago, at 20:00 UTC
Forecast valid from 21 at 21 UTC to 22 at 06 UTC
Wind 12 kt from the East
Visibility 10 km or more
Overcast at a height of 1500 ft
Temporary
from 21 at 21 UTC to 22 at 06 UTC
Visibility: 5000 m
Broken clouds at a height of 1000 ft
Overcast at a height of 1800 ft
rain

TAF: EIME 212000Z 2121/2206 09012KT 9999 OVC015 TEMPO 2121/2206 5000 RA BKN010 OVC018

Weather observations and forecasts of more than 4000 airports (METAR and TAF reports).

The available stations are represented by yellow and red dots on the map.

Hover mouse over dot to see the name of the station.

Then click to see weather observations and forecasts.

To change the map : click on the green buttons with a black cross to zoom in, on the green button with a dash to zoom out, or on the green arrows for adjacent maps.


METAR-TAF: